createdAt,value
2022-11-14T00:07:19.018Z,1.75
2022-11-14T00:11:39.317Z,2.47
2022-11-14T00:20:19.458Z,1.80
2022-11-14T00:24:39.759Z,2.60
2022-11-14T00:29:00.273Z,2.55
2022-11-14T00:33:21.275Z,2.33
2022-11-14T00:37:41.427Z,2.60
2022-11-14T00:42:01.420Z,2.42
2022-11-14T00:46:21.257Z,2.50
2022-11-14T00:50:42.145Z,1.98
2022-11-14T00:55:02.283Z,2.72
2022-11-14T00:59:22.510Z,2.58
2022-11-14T01:03:42.711Z,2.92
2022-11-14T01:08:02.751Z,2.88
2022-11-14T01:12:22.842Z,2.60
2022-11-14T01:16:42.979Z,2.75
2022-11-14T01:25:27.211Z,2.10
2022-11-14T01:29:47.141Z,2.15
2022-11-14T01:34:07.958Z,3.22
2022-11-14T01:38:28.528Z,2.83
2022-11-14T01:43:16.521Z,3.63
2022-11-14T01:47:36.375Z,2.47
2022-11-14T01:56:31.786Z,3.28
2022-11-14T02:00:52.037Z,3.20
2022-11-14T02:05:16.399Z,3.15
2022-11-14T02:09:38.906Z,2.97
2022-11-14T02:14:00.141Z,2.97
2022-11-14T02:18:20.135Z,2.95
2022-11-14T02:27:04.198Z,2.78
2022-11-14T02:31:24.387Z,2.25
2022-11-14T02:35:44.523Z,3.30
2022-11-14T02:44:25.372Z,1.80
2022-11-14T02:53:05.233Z,2.58
2022-11-14T02:57:25.059Z,2.60
2022-11-14T03:01:45.032Z,1.90
2022-11-14T03:06:05.649Z,2.28
2022-11-14T03:10:25.949Z,3.08
2022-11-14T03:14:46.036Z,2.38
2022-11-14T03:23:26.342Z,2.67
2022-11-14T03:27:46.579Z,2.70
2022-11-14T03:32:06.667Z,2.30
2022-11-14T03:36:26.556Z,2.22
2022-11-14T03:45:07.274Z,2.65
2022-11-14T03:53:46.962Z,3.28
2022-11-14T03:58:07.029Z,3.45
2022-11-14T04:02:27.029Z,2.90
2022-11-14T04:06:47.240Z,3.63
2022-11-14T04:11:07.413Z,3.40
2022-11-14T04:15:27.779Z,3.53
2022-11-14T04:24:11.059Z,3.22
2022-11-14T04:28:31.910Z,3.53
2022-11-14T04:32:52.201Z,2.90
2022-11-14T04:41:32.118Z,3.00
2022-11-14T04:45:51.872Z,3.58
2022-11-14T04:50:11.752Z,3.97
2022-11-14T04:54:32.163Z,4.57
2022-11-14T04:58:52.516Z,5.10
2022-11-14T05:07:33.846Z,4.25
2022-11-14T05:11:54.225Z,4.20
2022-11-14T05:16:14.262Z,4.60
2022-11-14T05:24:54.458Z,3.55
2022-11-14T05:33:35.492Z,4.45
2022-11-14T05:37:59.007Z,5.18
2022-11-14T05:42:20.112Z,5.30
2022-11-14T05:46:40.210Z,5.78
2022-11-14T05:51:02.352Z,6.93
2022-11-14T05:55:25.024Z,6.13
2022-11-14T05:59:45.394Z,7.47
2022-11-14T06:04:06.968Z,7.40
2022-11-14T06:08:29.172Z,6.78
2022-11-14T06:12:49.302Z,8.05
2022-11-14T06:21:31.000Z,4.03
2022-11-14T06:30:11.768Z,5.18
2022-11-14T06:34:31.768Z,6.63
2022-11-14T06:38:52.133Z,6.85
2022-11-14T06:47:32.320Z,6.90
2022-11-14T06:51:52.583Z,7.30
2022-11-14T06:56:15.445Z,6.63
2022-11-14T07:00:35.757Z,7.03
2022-11-14T07:04:55.840Z,7.60
2022-11-14T07:09:15.914Z,7.60
2022-11-14T07:13:36.321Z,8.65
2022-11-14T07:17:56.674Z,6.53
2022-11-14T07:22:17.021Z,6.97
2022-11-14T07:26:37.308Z,6.90
2022-11-14T07:30:57.254Z,7.85
2022-11-14T07:35:17.727Z,7.82
2022-11-14T07:39:37.631Z,6.72
2022-11-14T07:43:57.534Z,8.70
2022-11-14T07:48:18.186Z,7.13
2022-11-14T07:52:38.492Z,6.88
2022-11-14T07:56:58.439Z,7.20
2022-11-14T08:01:18.466Z,6.07
2022-11-14T08:05:38.986Z,7.05
2022-11-14T08:14:18.962Z,5.50
2022-11-14T08:18:39.919Z,7.45
2022-11-14T08:23:05.037Z,6.35
2022-11-14T08:27:25.297Z,7.38
2022-11-14T08:31:46.395Z,7.30
2022-11-14T08:36:07.112Z,7.25
2022-11-14T08:40:27.436Z,7.65
2022-11-14T08:44:51.892Z,7.45
2022-11-14T08:49:12.307Z,9.65
2022-11-14T08:53:33.930Z,7.82
2022-11-14T08:57:54.668Z,6.43
2022-11-14T09:02:14.774Z,6.43
2022-11-14T09:06:35.144Z,5.63
2022-11-14T09:15:15.770Z,4.97
2022-11-14T09:19:36.144Z,6.30
2022-11-14T09:24:00.639Z,5.95
2022-11-14T09:28:23.558Z,5.13
2022-11-14T09:32:43.598Z,7.32
2022-11-14T09:41:42.524Z,5.03
2022-11-14T09:46:03.025Z,7.00
2022-11-14T09:50:28.663Z,5.50
2022-11-14T09:55:19.426Z,7.32
2022-11-14T09:59:40.123Z,5.82
2022-11-14T10:04:20.224Z,7.82
2022-11-14T10:08:51.998Z,6.13
2022-11-14T10:13:34.717Z,7.28
2022-11-14T10:18:24.454Z,5.90
2022-11-14T10:23:01.414Z,7.13
2022-11-14T10:27:30.570Z,5.93
2022-11-14T10:31:50.619Z,6.95
2022-11-14T10:36:41.681Z,6.22
2022-11-14T10:41:06.492Z,7.60
2022-11-14T10:45:45.978Z,6.30
2022-11-14T10:50:19.502Z,7.28
2022-11-14T10:54:56.896Z,6.30
2022-11-14T10:59:17.576Z,6.50
2022-11-14T11:03:42.885Z,7.00
2022-11-14T11:08:41.937Z,7.30
2022-11-14T11:13:01.222Z,6.18
2022-11-14T11:17:22.794Z,8.10
2022-11-14T11:21:51.549Z,7.53
2022-11-14T11:26:27.122Z,7.20
2022-11-14T11:30:56.768Z,6.30
2022-11-14T11:35:17.869Z,6.33
2022-11-14T11:39:43.125Z,6.70
2022-11-14T11:44:11.627Z,7.28
2022-11-14T11:48:38.804Z,5.60
2022-11-14T11:53:23.470Z,7.50
2022-11-14T11:57:47.468Z,6.95
2022-11-14T12:02:23.113Z,6.70
2022-11-14T12:06:58.024Z,6.07
2022-11-14T12:11:21.954Z,5.40
2022-11-14T12:15:58.836Z,6.10
2022-11-14T12:20:46.838Z,5.18
2022-11-14T12:25:30.189Z,6.15
2022-11-14T12:30:09.892Z,7.53
2022-11-14T12:34:48.615Z,6.60
2022-11-14T12:39:22.688Z,6.63
2022-11-14T12:43:43.524Z,7.10
2022-11-14T12:48:28.945Z,5.70
2022-11-14T12:52:54.760Z,5.45
2022-11-14T12:57:46.287Z,7.00
2022-11-14T13:02:22.001Z,6.18
2022-11-14T13:07:00.005Z,8.40
2022-11-14T13:11:51.697Z,5.78
2022-11-14T13:16:47.883Z,6.70
2022-11-14T13:21:46.558Z,7.20
2022-11-14T13:26:09.583Z,8.30
2022-11-14T13:31:06.736Z,6.70
2022-11-14T13:35:38.834Z,7.20
2022-11-14T13:40:16.156Z,6.80
2022-11-14T13:44:54.893Z,5.88
2022-11-14T13:49:41.696Z,7.55
2022-11-14T13:54:01.610Z,6.70
2022-11-14T13:58:58.939Z,8.57
2022-11-14T14:03:43.082Z,5.95
2022-11-14T14:08:37.187Z,6.72
2022-11-14T14:13:26.345Z,7.63
2022-11-14T14:17:58.453Z,6.95
2022-11-14T14:23:06.109Z,7.63
2022-11-14T14:28:03.633Z,6.93
2022-11-14T14:32:24.157Z,7.53
2022-11-14T14:36:53.258Z,6.28
2022-11-14T14:41:16.043Z,7.45
2022-11-14T14:45:54.843Z,9.15
2022-11-14T14:50:22.503Z,7.30
2022-11-14T14:54:42.438Z,6.07
2022-11-14T14:59:16.321Z,6.63
2022-11-14T15:03:39.704Z,7.38
2022-11-14T15:08:00.904Z,7.43
2022-11-14T15:12:23.606Z,7.45
2022-11-14T15:16:46.868Z,6.55
2022-11-14T15:21:23.096Z,6.68
2022-11-14T15:25:43.527Z,7.20
2022-11-14T15:30:24.135Z,7.25
2022-11-14T15:34:44.156Z,6.50
2022-11-14T15:39:22.423Z,7.55
2022-11-14T15:43:45.198Z,6.55
2022-11-14T15:48:14.019Z,6.45
2022-11-14T15:52:39.093Z,6.93
2022-11-14T15:57:01.780Z,8.05
2022-11-14T16:01:26.434Z,7.63
2022-11-14T16:05:46.811Z,7.85
2022-11-14T16:10:27.427Z,6.50
2022-11-14T16:14:47.561Z,6.53
2022-11-14T16:19:08.067Z,7.00
2022-11-14T16:23:28.020Z,6.78
2022-11-14T16:27:48.479Z,6.30
2022-11-14T16:32:10.950Z,6.60
2022-11-14T16:36:32.025Z,6.88
2022-11-14T16:40:52.175Z,7.68
2022-11-14T16:45:12.542Z,7.80
2022-11-14T16:49:33.035Z,8.02
2022-11-14T16:53:56.501Z,7.88
2022-11-14T16:58:16.344Z,6.80
2022-11-14T17:06:56.983Z,6.27
2022-11-14T17:11:17.178Z,6.53
2022-11-14T17:15:37.743Z,7.43
2022-11-14T17:19:58.113Z,7.57
2022-11-14T17:24:18.447Z,6.43
2022-11-14T17:33:00.549Z,6.00
2022-11-14T17:41:41.008Z,6.88
2022-11-14T17:50:21.363Z,7.82
2022-11-14T17:59:01.917Z,6.15
2022-11-14T18:07:41.965Z,7.63
2022-11-14T18:16:26.349Z,7.97
2022-11-14T18:20:51.350Z,7.45
2022-11-14T18:25:11.498Z,7.43
2022-11-14T18:29:31.946Z,8.82
2022-11-14T18:38:12.347Z,8.65
2022-11-14T18:46:52.424Z,7.55
2022-11-14T18:51:17.923Z,8.82
2022-11-14T18:55:41.200Z,8.25
2022-11-14T19:00:01.514Z,9.45
2022-11-14T19:04:23.448Z,8.20
2022-11-14T19:08:43.424Z,7.90
2022-11-14T19:13:03.393Z,9.70
2022-11-14T19:17:23.832Z,7.80
2022-11-14T19:21:44.177Z,10.38
2022-11-14T19:26:04.055Z,7.95
2022-11-14T19:34:45.283Z,5.90
2022-11-14T19:39:05.615Z,7.65
2022-11-14T19:43:26.007Z,7.35
2022-11-14T19:47:46.145Z,8.13
2022-11-14T19:52:06.390Z,9.52
2022-11-14T20:00:46.720Z,7.20
2022-11-14T20:05:08.246Z,8.27
2022-11-14T20:09:28.350Z,7.43
2022-11-14T20:18:08.889Z,6.03
2022-11-14T20:22:29.090Z,8.25
2022-11-14T20:31:15.241Z,6.83
2022-11-14T20:35:37.426Z,7.70
2022-11-14T20:39:57.390Z,8.40
2022-11-14T20:44:18.844Z,8.70
2022-11-14T20:48:39.546Z,7.80
2022-11-14T20:52:59.560Z,8.68
2022-11-14T21:01:43.789Z,7.57
2022-11-14T21:06:04.864Z,8.55
2022-11-14T21:10:44.046Z,8.50
2022-11-14T21:15:05.627Z,8.45
2022-11-14T21:19:25.895Z,10.45
2022-11-14T21:23:47.346Z,7.53
2022-11-14T21:28:07.597Z,8.50
2022-11-14T21:36:48.287Z,7.32
2022-11-14T21:41:11.800Z,8.73
2022-11-14T21:45:31.841Z,9.80
2022-11-14T21:49:59.932Z,8.27
2022-11-14T21:54:20.785Z,8.30
2022-11-14T21:58:41.406Z,7.63
2022-11-14T22:03:20.052Z,7.50
2022-11-14T22:07:42.008Z,6.70
2022-11-14T22:12:02.196Z,8.05
2022-11-14T22:16:22.296Z,6.65
2022-11-14T22:25:02.679Z,6.55
2022-11-14T22:33:46.807Z,6.55
2022-11-14T22:38:07.343Z,8.88
2022-11-14T22:42:27.313Z,6.75
2022-11-14T22:46:47.458Z,7.80
2022-11-14T22:51:11.308Z,8.18
2022-11-14T22:55:31.437Z,7.97
2022-11-14T22:59:51.839Z,7.72
2022-11-14T23:08:31.898Z,7.35
2022-11-14T23:17:11.879Z,6.80
2022-11-14T23:21:36.494Z,7.55
2022-11-14T23:25:56.308Z,7.63
2022-11-14T23:30:16.545Z,8.15
2022-11-14T23:34:36.435Z,8.82
2022-11-14T23:38:56.395Z,8.88
2022-11-14T23:47:36.806Z,7.07
2022-11-14T23:51:57.031Z,7.50
2022-11-14T23:56:16.901Z,8.20
